Terminal Aerodrome Forecast
Issued by NWS

Home | Current Version | Previous Version | Text Only | Print | Product List | Glossary Off
Versions: 1 2 3 4 5 6 7 8 9 10 11 12 13 14 15 16 17 18 19 20

000
FTUS43 KTOP 211123
TAFMHK
TAF
KMHK 211123Z 2112/2212 06005KT 4SM BR OVC011
      TEMPO 2112/2116 2SM BR OVC008
     FM211600 15006KT P6SM -DZ OVC015
     FM211800 18010KT P6SM VCSH BKN035
     FM212300 12007KT P6SM VCSH OVC012
     FM220200 16006KT P6SM BKN008=

USA.gov is the U.S. government's official web portal to all federal, state and local government web resources and services.